MKJS 250600Z 10004KT 9999 VCTS FEW022CB 28/25 Q1011
MKJP 250545Z 14010KT 9999 SCT020 FEW022CB 30/24 Q1012
MWCR 250450Z 17004KT 9999 FEW018 29/26 Q1011
MWCB 250000Z 18004KT 9999 FEW018CB 30/25 Q1010